sensor_id;sensor_type;location;lat;lon;timestamp;temperature;humidity
56374;DHT22;58212;47.034;7.376;2022-12-24T00:00:59;11.40;99.90
56374;DHT22;58212;47.034;7.376;2022-12-24T00:03:26;11.40;99.90
56374;DHT22;58212;47.034;7.376;2022-12-24T00:05:53;11.40;99.90
56374;DHT22;58212;47.034;7.376;2022-12-24T00:08:21;11.50;99.90
56374;DHT22;58212;47.034;7.376;2022-12-24T00:10:51;11.60;99.90
56374;DHT22;58212;47.034;7.376;2022-12-24T00:13:20;11.60;99.90
56374;DHT22;58212;47.034;7.376;2022-12-24T00:15:47;11.50;99.90
56374;DHT22;58212;47.034;7.376;2022-12-24T00:18:15;11.50;99.90
56374;DHT22;58212;47.034;7.376;2022-12-24T00:20:45;11.60;99.90
56374;DHT22;58212;47.034;7.376;2022-12-24T00:23:13;11.50;99.90
56374;DHT22;58212;47.034;7.376;2022-12-24T00:25:40;11.50;99.90
56374;DHT22;58212;47.034;7.376;2022-12-24T00:28:09;11.50;99.90
56374;DHT22;58212;47.034;7.376;2022-12-24T00:30:36;11.50;99.90
56374;DHT22;58212;47.034;7.376;2022-12-24T00:33:04;11.40;99.90
56374;DHT22;58212;47.034;7.376;2022-12-24T00:35:32;11.50;99.90
56374;DHT22;58212;47.034;7.376;2022-12-24T00:38:00;11.50;99.90
56374;DHT22;58212;47.034;7.376;2022-12-24T00:40:28;11.50;99.90
56374;DHT22;58212;47.034;7.376;2022-12-24T00:42:56;11.60;99.90
56374;DHT22;58212;47.034;7.376;2022-12-24T00:45:26;11.50;99.90
56374;DHT22;58212;47.034;7.376;2022-12-24T00:47:54;11.50;99.90
56374;DHT22;58212;47.034;7.376;2022-12-24T00:50:21;11.50;99.90
56374;DHT22;58212;47.034;7.376;2022-12-24T00:52:51;11.40;99.90
56374;DHT22;58212;47.034;7.376;2022-12-24T00:55:18;11.40;99.90
56374;DHT22;58212;47.034;7.376;2022-12-24T00:57:45;11.50;99.90
56374;DHT22;58212;47.034;7.376;2022-12-24T01:00:13;11.60;99.90
56374;DHT22;58212;47.034;7.376;2022-12-24T01:02:43;11.70;99.90
56374;DHT22;58212;47.034;7.376;2022-12-24T01:05:11;11.50;99.90
56374;DHT22;58212;47.034;7.376;2022-12-24T01:07:40;11.50;99.90
56374;DHT22;58212;47.034;7.376;2022-12-24T01:10:09;11.50;99.90
56374;DHT22;58212;47.034;7.376;2022-12-24T01:12:37;11.50;99.90
56374;DHT22;58212;47.034;7.376;2022-12-24T01:15:04;11.40;99.90
56374;DHT22;58212;47.034;7.376;2022-12-24T01:17:32;11.60;99.90
56374;DHT22;58212;47.034;7.376;2022-12-24T01:20:04;11.60;99.90
56374;DHT22;58212;47.034;7.376;2022-12-24T01:22:33;11.60;99.90
56374;DHT22;58212;47.034;7.376;2022-12-24T01:25:00;11.60;99.90
56374;DHT22;58212;47.034;7.376;2022-12-24T01:27:29;11.60;99.90
56374;DHT22;58212;47.034;7.376;2022-12-24T01:29:57;11.50;99.90
56374;DHT22;58212;47.034;7.376;2022-12-24T01:32:24;11.50;99.90
56374;DHT22;58212;47.034;7.376;2022-12-24T01:34:52;11.60;99.90
56374;DHT22;58212;47.034;7.376;2022-12-24T01:37:20;11.60;99.90
56374;DHT22;58212;47.034;7.376;2022-12-24T01:39:47;11.50;99.90
56374;DHT22;58212;47.034;7.376;2022-12-24T01:42:18;11.60;99.90
56374;DHT22;58212;47.034;7.376;2022-12-24T01:45:40;11.60;99.90
56374;DHT22;58212;47.034;7.376;2022-12-24T01:48:15;11.50;99.90
56374;DHT22;58212;47.034;7.376;2022-12-24T01:50:43;11.40;99.90
56374;DHT22;58212;47.034;7.376;2022-12-24T01:53:13;11.50;99.90
56374;DHT22;58212;47.034;7.376;2022-12-24T01:55:41;11.50;99.90
56374;DHT22;58212;47.034;7.376;2022-12-24T01:58:10;11.50;99.90
56374;DHT22;58212;47.034;7.376;2022-12-24T02:00:38;11.60;99.90
56374;DHT22;58212;47.034;7.376;2022-12-24T02:03:07;11.60;99.90
56374;DHT22;58212;47.034;7.376;2022-12-24T02:05:41;11.50;99.90
56374;DHT22;58212;47.034;7.376;2022-12-24T02:08:17;11.40;99.90
56374;DHT22;58212;47.034;7.376;2022-12-24T02:10:56;11.30;99.90
56374;DHT22;58212;47.034;7.376;2022-12-24T02:13:23;11.20;99.90
56374;DHT22;58212;47.034;7.376;2022-12-24T02:15:59;11.30;99.90
56374;DHT22;58212;47.034;7.376;2022-12-24T02:18:32;11.30;99.90
56374;DHT22;58212;47.034;7.376;2022-12-24T02:21:36;11.30;99.90
56374;DHT22;58212;47.034;7.376;2022-12-24T02:27:36;11.40;99.90
56374;DHT22;58212;47.034;7.376;2022-12-24T02:30:14;11.50;99.90
56374;DHT22;58212;47.034;7.376;2022-12-24T02:32:59;11.50;99.90
56374;DHT22;58212;47.034;7.376;2022-12-24T02:35:37;11.40;99.90
56374;DHT22;58212;47.034;7.376;2022-12-24T02:38:12;11.30;99.90
56374;DHT22;58212;47.034;7.376;2022-12-24T02:40:45;11.40;99.90
56374;DHT22;58212;47.034;7.376;2022-12-24T02:43:17;11.30;99.90
56374;DHT22;58212;47.034;7.376;2022-12-24T02:45:50;11.10;99.90
56374;DHT22;58212;47.034;7.376;2022-12-24T02:48:19;11.10;99.90
56374;DHT22;58212;47.034;7.376;2022-12-24T02:51:01;11.30;99.90
56374;DHT22;58212;47.034;7.376;2022-12-24T02:53:29;11.30;99.90
56374;DHT22;58212;47.034;7.376;2022-12-24T02:56:15;11.20;99.90
56374;DHT22;58212;47.034;7.376;2022-12-24T02:58:52;11.30;99.90
56374;DHT22;58212;47.034;7.376;2022-12-24T03:01:32;11.30;99.90
56374;DHT22;58212;47.034;7.376;2022-12-24T03:04:11;11.30;99.90
56374;DHT22;58212;47.034;7.376;2022-12-24T03:06:49;11.30;99.90
56374;DHT22;58212;47.034;7.376;2022-12-24T03:09:24;11.20;99.90
56374;DHT22;58212;47.034;7.376;2022-12-24T03:11:56;11.20;99.90
56374;DHT22;58212;47.034;7.376;2022-12-24T03:14:27;11.20;99.90
56374;DHT22;58212;47.034;7.376;2022-12-24T03:16:57;11.00;99.90
56374;DHT22;58212;47.034;7.376;2022-12-24T03:19:27;10.90;99.90
56374;DHT22;58212;47.034;7.376;2022-12-24T03:21:56;11.00;99.90
56374;DHT22;58212;47.034;7.376;2022-12-24T03:24:24;11.00;99.90
56374;DHT22;58212;47.034;7.376;2022-12-24T03:26:51;10.90;99.90
56374;DHT22;58212;47.034;7.376;2022-12-24T03:29:18;11.00;99.90
56374;DHT22;58212;47.034;7.376;2022-12-24T03:31:48;11.00;99.90
56374;DHT22;58212;47.034;7.376;2022-12-24T03:34:17;10.90;99.90
56374;DHT22;58212;47.034;7.376;2022-12-24T03:36:46;10.90;99.90
56374;DHT22;58212;47.034;7.376;2022-12-24T03:39:13;10.90;99.90
56374;DHT22;58212;47.034;7.376;2022-12-24T03:41:40;10.90;99.90
56374;DHT22;58212;47.034;7.376;2022-12-24T03:44:07;10.90;99.90
56374;DHT22;58212;47.034;7.376;2022-12-24T03:46:36;10.70;99.90
56374;DHT22;58212;47.034;7.376;2022-12-24T03:49:03;10.70;99.90
56374;DHT22;58212;47.034;7.376;2022-12-24T03:51:32;10.60;99.90
56374;DHT22;58212;47.034;7.376;2022-12-24T03:54:00;10.60;99.90
56374;DHT22;58212;47.034;7.376;2022-12-24T03:56:28;10.70;99.90
56374;DHT22;58212;47.034;7.376;2022-12-24T03:58:55;10.60;99.90
56374;DHT22;58212;47.034;7.376;2022-12-24T04:01:22;10.70;99.90
56374;DHT22;58212;47.034;7.376;2022-12-24T04:03:49;10.60;99.90
56374;DHT22;58212;47.034;7.376;2022-12-24T04:06:16;10.60;99.90
56374;DHT22;58212;47.034;7.376;2022-12-24T04:08:45;10.60;99.90
56374;DHT22;58212;47.034;7.376;2022-12-24T04:11:16;10.70;99.90
56374;DHT22;58212;47.034;7.376;2022-12-24T04:13:43;10.60;99.90
56374;DHT22;58212;47.034;7.376;2022-12-24T04:16:14;10.60;99.90
56374;DHT22;58212;47.034;7.376;2022-12-24T04:18:42;10.50;99.90
56374;DHT22;58212;47.034;7.376;2022-12-24T04:21:10;10.40;99.90
56374;DHT22;58212;47.034;7.376;2022-12-24T04:23:38;10.50;99.90
56374;DHT22;58212;47.034;7.376;2022-12-24T04:26:09;10.40;99.90
56374;DHT22;58212;47.034;7.376;2022-12-24T04:28:37;10.40;99.90
56374;DHT22;58212;47.034;7.376;2022-12-24T04:31:06;10.30;99.90
56374;DHT22;58212;47.034;7.376;2022-12-24T04:33:35;10.40;99.90
56374;DHT22;58212;47.034;7.376;2022-12-24T04:36:06;10.40;99.90
56374;DHT22;58212;47.034;7.376;2022-12-24T04:38:36;10.40;99.90
56374;DHT22;58212;47.034;7.376;2022-12-24T04:41:05;10.40;99.90
56374;DHT22;58212;47.034;7.376;2022-12-24T04:43:34;10.30;99.90
56374;DHT22;58212;47.034;7.376;2022-12-24T04:46:05;10.20;99.90
56374;DHT22;58212;47.034;7.376;2022-12-24T04:48:33;10.00;99.90
56374;DHT22;58212;47.034;7.376;2022-12-24T04:51:00;10.10;99.90
56374;DHT22;58212;47.034;7.376;2022-12-24T04:53:31;10.10;99.90
56374;DHT22;58212;47.034;7.376;2022-12-24T04:55:59;10.20;99.90
56374;DHT22;58212;47.034;7.376;2022-12-24T04:58:26;10.30;99.90
56374;DHT22;58212;47.034;7.376;2022-12-24T05:00:55;10.20;99.90
56374;DHT22;58212;47.034;7.376;2022-12-24T05:03:22;10.20;99.90
56374;DHT22;58212;47.034;7.376;2022-12-24T05:05:50;10.20;99.90
56374;DHT22;58212;47.034;7.376;2022-12-24T05:08:17;10.20;99.90
56374;DHT22;58212;47.034;7.376;2022-12-24T05:10:44;10.20;99.90
56374;DHT22;58212;47.034;7.376;2022-12-24T05:13:20;10.20;99.90
56374;DHT22;58212;47.034;7.376;2022-12-24T05:15:47;10.20;99.90
56374;DHT22;58212;47.034;7.376;2022-12-24T05:18:15;10.20;99.90
56374;DHT22;58212;47.034;7.376;2022-12-24T05:20:43;10.10;99.90
56374;DHT22;58212;47.034;7.376;2022-12-24T05:23:14;10.00;99.90
56374;DHT22;58212;47.034;7.376;2022-12-24T05:26:02;10.00;99.90
56374;DHT22;58212;47.034;7.376;2022-12-24T05:28:46;10.00;99.90
56374;DHT22;58212;47.034;7.376;2022-12-24T05:31:16;10.10;99.90
56374;DHT22;58212;47.034;7.376;2022-12-24T05:33:45;10.00;99.90
56374;DHT22;58212;47.034;7.376;2022-12-24T05:36:13;10.10;99.90
56374;DHT22;58212;47.034;7.376;2022-12-24T05:38:42;10.10;99.90
56374;DHT22;58212;47.034;7.376;2022-12-24T05:41:09;10.00;99.90
56374;DHT22;58212;47.034;7.376;2022-12-24T05:43:37;9.90;99.90
56374;DHT22;58212;47.034;7.376;2022-12-24T05:46:06;10.00;99.90
56374;DHT22;58212;47.034;7.376;2022-12-24T05:48:36;10.00;99.90
56374;DHT22;58212;47.034;7.376;2022-12-24T05:51:05;10.00;99.90
56374;DHT22;58212;47.034;7.376;2022-12-24T05:53:33;10.00;99.90
56374;DHT22;58212;47.034;7.376;2022-12-24T05:56:05;9.90;99.90
56374;DHT22;58212;47.034;7.376;2022-12-24T05:58:33;9.80;99.90
56374;DHT22;58212;47.034;7.376;2022-12-24T06:01:01;9.90;99.90
56374;DHT22;58212;47.034;7.376;2022-12-24T06:03:28;9.90;99.90
56374;DHT22;58212;47.034;7.376;2022-12-24T06:06:00;9.80;99.90
56374;DHT22;58212;47.034;7.376;2022-12-24T06:08:30;9.80;99.90
56374;DHT22;58212;47.034;7.376;2022-12-24T06:10:58;9.70;99.90
56374;DHT22;58212;47.034;7.376;2022-12-24T06:13:26;9.60;99.90
56374;DHT22;58212;47.034;7.376;2022-12-24T06:15:57;9.70;99.90
56374;DHT22;58212;47.034;7.376;2022-12-24T06:18:25;9.70;99.90
56374;DHT22;58212;47.034;7.376;2022-12-24T06:20:53;9.70;99.90
56374;DHT22;58212;47.034;7.376;2022-12-24T06:23:21;9.70;99.90
56374;DHT22;58212;47.034;7.376;2022-12-24T06:25:50;9.70;99.90
56374;DHT22;58212;47.034;7.376;2022-12-24T06:28:18;9.70;99.90
56374;DHT22;58212;47.034;7.376;2022-12-24T06:30:45;9.60;99.90
56374;DHT22;58212;47.034;7.376;2022-12-24T06:33:13;9.70;99.90
56374;DHT22;58212;47.034;7.376;2022-12-24T06:35:44;9.70;99.90
56374;DHT22;58212;47.034;7.376;2022-12-24T06:38:11;9.70;99.90
56374;DHT22;58212;47.034;7.376;2022-12-24T06:40:39;9.60;99.90
56374;DHT22;58212;47.034;7.376;2022-12-24T06:43:08;9.70;99.90
56374;DHT22;58212;47.034;7.376;2022-12-24T06:45:37;9.70;99.90
56374;DHT22;58212;47.034;7.376;2022-12-24T06:48:05;9.60;99.90
56374;DHT22;58212;47.034;7.376;2022-12-24T06:50:34;9.60;99.90
56374;DHT22;58212;47.034;7.376;2022-12-24T06:53:02;9.70;99.90
56374;DHT22;58212;47.034;7.376;2022-12-24T06:55:29;9.70;99.90
56374;DHT22;58212;47.034;7.376;2022-12-24T06:57:56;9.70;99.90
56374;DHT22;58212;47.034;7.376;2022-12-24T07:00:24;9.60;99.90
56374;DHT22;58212;47.034;7.376;2022-12-24T07:02:51;9.60;99.90
56374;DHT22;58212;47.034;7.376;2022-12-24T07:05:18;9.60;99.90
56374;DHT22;58212;47.034;7.376;2022-12-24T07:07:45;9.50;99.90
56374;DHT22;58212;47.034;7.376;2022-12-24T07:10:14;9.60;99.90
56374;DHT22;58212;47.034;7.376;2022-12-24T07:12:44;9.50;99.90
56374;DHT22;58212;47.034;7.376;2022-12-24T07:15:12;9.50;99.90
56374;DHT22;58212;47.034;7.376;2022-12-24T07:17:43;9.50;99.90
56374;DHT22;58212;47.034;7.376;2022-12-24T07:20:12;9.50;99.90
56374;DHT22;58212;47.034;7.376;2022-12-24T07:22:39;9.50;99.90
56374;DHT22;58212;47.034;7.376;2022-12-24T07:25:07;9.50;99.90
56374;DHT22;58212;47.034;7.376;2022-12-24T07:27:34;9.50;99.90
56374;DHT22;58212;47.034;7.376;2022-12-24T07:30:01;9.50;99.90
56374;DHT22;58212;47.034;7.376;2022-12-24T07:32:28;9.40;99.90
56374;DHT22;58212;47.034;7.376;2022-12-24T07:34:57;9.40;99.90
56374;DHT22;58212;47.034;7.376;2022-12-24T07:37:24;9.40;99.90
56374;DHT22;58212;47.034;7.376;2022-12-24T07:39:54;9.50;99.90
56374;DHT22;58212;47.034;7.376;2022-12-24T07:42:21;9.50;99.90
56374;DHT22;58212;47.034;7.376;2022-12-24T07:44:48;9.50;99.90
56374;DHT22;58212;47.034;7.376;2022-12-24T07:47:15;9.50;99.90
56374;DHT22;58212;47.034;7.376;2022-12-24T07:49:42;9.60;99.90
56374;DHT22;58212;47.034;7.376;2022-12-24T07:52:11;9.60;99.90
56374;DHT22;58212;47.034;7.376;2022-12-24T07:54:41;9.60;99.90
56374;DHT22;58212;47.034;7.376;2022-12-24T07:57:10;9.60;99.90
56374;DHT22;58212;47.034;7.376;2022-12-24T07:59:37;9.60;99.90
56374;DHT22;58212;47.034;7.376;2022-12-24T08:02:04;9.60;99.90
56374;DHT22;58212;47.034;7.376;2022-12-24T08:04:31;9.60;99.90
56374;DHT22;58212;47.034;7.376;2022-12-24T08:07:01;9.70;99.90
56374;DHT22;58212;47.034;7.376;2022-12-24T08:09:31;9.70;99.90
56374;DHT22;58212;47.034;7.376;2022-12-24T08:11:59;9.70;99.90
56374;DHT22;58212;47.034;7.376;2022-12-24T08:14:27;9.70;99.90
56374;DHT22;58212;47.034;7.376;2022-12-24T08:16:54;9.70;99.90
56374;DHT22;58212;47.034;7.376;2022-12-24T08:19:22;9.70;99.90
56374;DHT22;58212;47.034;7.376;2022-12-24T08:21:49;9.70;99.90
56374;DHT22;58212;47.034;7.376;2022-12-24T08:24:19;9.70;99.90
56374;DHT22;58212;47.034;7.376;2022-12-24T08:26:47;9.70;99.90
56374;DHT22;58212;47.034;7.376;2022-12-24T08:29:27;9.70;99.90
56374;DHT22;58212;47.034;7.376;2022-12-24T08:32:11;9.70;99.90
56374;DHT22;58212;47.034;7.376;2022-12-24T08:34:52;9.80;99.90
56374;DHT22;58212;47.034;7.376;2022-12-24T08:37:24;9.70;99.90
56374;DHT22;58212;47.034;7.376;2022-12-24T08:40:02;9.70;99.90
56374;DHT22;58212;47.034;7.376;2022-12-24T08:42:30;9.80;99.90
56374;DHT22;58212;47.034;7.376;2022-12-24T08:44:59;9.80;99.90
56374;DHT22;58212;47.034;7.376;2022-12-24T08:47:26;9.80;99.90
56374;DHT22;58212;47.034;7.376;2022-12-24T08:49:53;9.80;99.90
56374;DHT22;58212;47.034;7.376;2022-12-24T08:52:20;9.80;99.90
56374;DHT22;58212;47.034;7.376;2022-12-24T08:54:50;9.70;99.90
56374;DHT22;58212;47.034;7.376;2022-12-24T08:57:17;9.70;99.90
56374;DHT22;58212;47.034;7.376;2022-12-24T08:59:48;9.70;99.90
56374;DHT22;58212;47.034;7.376;2022-12-24T09:02:15;9.70;99.90
56374;DHT22;58212;47.034;7.376;2022-12-24T09:04:42;9.70;99.90
56374;DHT22;58212;47.034;7.376;2022-12-24T09:07:13;9.60;99.90
56374;DHT22;58212;47.034;7.376;2022-12-24T09:09:41;9.70;99.90
56374;DHT22;58212;47.034;7.376;2022-12-24T09:12:08;9.80;99.90
56374;DHT22;58212;47.034;7.376;2022-12-24T09:14:36;9.90;99.90
56374;DHT22;58212;47.034;7.376;2022-12-24T09:17:04;9.90;99.90
56374;DHT22;58212;47.034;7.376;2022-12-24T09:19:32;9.90;99.90
56374;DHT22;58212;47.034;7.376;2022-12-24T09:21:59;9.80;99.90
56374;DHT22;58212;47.034;7.376;2022-12-24T09:24:27;9.90;99.90
56374;DHT22;58212;47.034;7.376;2022-12-24T09:26:54;9.90;99.90
56374;DHT22;58212;47.034;7.376;2022-12-24T09:29:21;9.90;99.90
56374;DHT22;58212;47.034;7.376;2022-12-24T09:31:48;10.00;99.90
56374;DHT22;58212;47.034;7.376;2022-12-24T09:34:16;10.00;99.90
56374;DHT22;58212;47.034;7.376;2022-12-24T09:36:43;10.10;99.90
56374;DHT22;58212;47.034;7.376;2022-12-24T09:39:11;10.30;99.90
56374;DHT22;58212;47.034;7.376;2022-12-24T09:41:46;10.30;99.90
56374;DHT22;58212;47.034;7.376;2022-12-24T09:44:26;10.40;99.90
56374;DHT22;58212;47.034;7.376;2022-12-24T09:47:01;10.40;99.90
56374;DHT22;58212;47.034;7.376;2022-12-24T09:49:36;10.30;99.90
56374;DHT22;58212;47.034;7.376;2022-12-24T09:52:07;10.30;99.90
56374;DHT22;58212;47.034;7.376;2022-12-24T09:54:40;10.20;99.90
56374;DHT22;58212;47.034;7.376;2022-12-24T09:57:14;10.30;99.90
56374;DHT22;58212;47.034;7.376;2022-12-24T09:59:44;10.40;99.90
56374;DHT22;58212;47.034;7.376;2022-12-24T10:02:14;10.50;99.90
56374;DHT22;58212;47.034;7.376;2022-12-24T10:04:44;10.40;99.90
56374;DHT22;58212;47.034;7.376;2022-12-24T10:07:24;10.40;99.90
56374;DHT22;58212;47.034;7.376;2022-12-24T10:10:00;10.30;99.90
56374;DHT22;58212;47.034;7.376;2022-12-24T10:12:35;10.30;99.90
56374;DHT22;58212;47.034;7.376;2022-12-24T10:15:12;10.30;99.90
56374;DHT22;58212;47.034;7.376;2022-12-24T10:17:49;10.30;99.90
56374;DHT22;58212;47.034;7.376;2022-12-24T10:20:41;10.30;99.90
56374;DHT22;58212;47.034;7.376;2022-12-24T10:23:18;10.30;99.90
56374;DHT22;58212;47.034;7.376;2022-12-24T10:25:51;10.30;99.90
56374;DHT22;58212;47.034;7.376;2022-12-24T10:28:23;10.20;99.90
56374;DHT22;58212;47.034;7.376;2022-12-24T10:30:58;10.20;99.90
56374;DHT22;58212;47.034;7.376;2022-12-24T10:33:31;9.80;99.90
56374;DHT22;58212;47.034;7.376;2022-12-24T10:36:00;9.50;99.90
56374;DHT22;58212;47.034;7.376;2022-12-24T10:38:30;9.60;99.90
56374;DHT22;58212;47.034;7.376;2022-12-24T10:40:59;9.60;99.90
56374;DHT22;58212;47.034;7.376;2022-12-24T10:43:28;9.50;99.90
56374;DHT22;58212;47.034;7.376;2022-12-24T10:45:59;9.70;99.90
56374;DHT22;58212;47.034;7.376;2022-12-24T10:48:29;9.90;99.90
56374;DHT22;58212;47.034;7.376;2022-12-24T10:51:02;9.90;99.90
56374;DHT22;58212;47.034;7.376;2022-12-24T10:53:36;9.90;99.90
56374;DHT22;58212;47.034;7.376;2022-12-24T10:56:08;9.70;99.90
56374;DHT22;58212;47.034;7.376;2022-12-24T10:58:42;9.50;99.90
56374;DHT22;58212;47.034;7.376;2022-12-24T11:01:10;9.50;99.90
56374;DHT22;58212;47.034;7.376;2022-12-24T11:03:38;9.50;99.90
56374;DHT22;58212;47.034;7.376;2022-12-24T11:06:09;9.60;99.90
56374;DHT22;58212;47.034;7.376;2022-12-24T11:08:40;9.80;99.90
56374;DHT22;58212;47.034;7.376;2022-12-24T11:11:10;10.00;99.90
56374;DHT22;58212;47.034;7.376;2022-12-24T11:13:39;10.10;99.90
56374;DHT22;58212;47.034;7.376;2022-12-24T11:16:14;10.30;99.90
56374;DHT22;58212;47.034;7.376;2022-12-24T11:18:46;10.30;99.90
56374;DHT22;58212;47.034;7.376;2022-12-24T11:21:20;10.40;99.90
56374;DHT22;58212;47.034;7.376;2022-12-24T11:23:50;10.40;99.90
56374;DHT22;58212;47.034;7.376;2022-12-24T11:26:21;10.40;99.90
56374;DHT22;58212;47.034;7.376;2022-12-24T11:29:11;10.30;99.90
56374;DHT22;58212;47.034;7.376;2022-12-24T11:31:39;10.20;99.90
56374;DHT22;58212;47.034;7.376;2022-12-24T11:34:22;10.30;99.90
56374;DHT22;58212;47.034;7.376;2022-12-24T11:36:54;10.30;99.90
56374;DHT22;58212;47.034;7.376;2022-12-24T11:39:22;10.10;99.90
56374;DHT22;58212;47.034;7.376;2022-12-24T11:41:50;10.00;99.90
56374;DHT22;58212;47.034;7.376;2022-12-24T11:44:25;9.70;99.90
56374;DHT22;58212;47.034;7.376;2022-12-24T11:46:54;9.80;99.90
56374;DHT22;58212;47.034;7.376;2022-12-24T11:49:24;9.70;99.90
56374;DHT22;58212;47.034;7.376;2022-12-24T11:52:15;9.60;99.90
56374;DHT22;58212;47.034;7.376;2022-12-24T11:54:56;9.90;99.90
56374;DHT22;58212;47.034;7.376;2022-12-24T11:57:33;9.90;99.90
56374;DHT22;58212;47.034;7.376;2022-12-24T12:00:04;9.70;99.90
56374;DHT22;58212;47.034;7.376;2022-12-24T12:02:35;9.80;99.90
56374;DHT22;58212;47.034;7.376;2022-12-24T12:05:08;9.90;99.90
56374;DHT22;58212;47.034;7.376;2022-12-24T12:07:39;9.60;99.90
56374;DHT22;58212;47.034;7.376;2022-12-24T12:10:10;9.40;99.90
56374;DHT22;58212;47.034;7.376;2022-12-24T12:12:43;9.60;99.90
56374;DHT22;58212;47.034;7.376;2022-12-24T12:15:13;9.50;99.90
56374;DHT22;58212;47.034;7.376;2022-12-24T12:17:44;9.30;99.90
56374;DHT22;58212;47.034;7.376;2022-12-24T12:20:18;9.20;99.90
56374;DHT22;58212;47.034;7.376;2022-12-24T12:22:54;9.00;99.90
56374;DHT22;58212;47.034;7.376;2022-12-24T12:25:48;9.00;99.90
56374;DHT22;58212;47.034;7.376;2022-12-24T12:28:37;9.00;99.90
56374;DHT22;58212;47.034;7.376;2022-12-24T12:31:21;9.10;99.90
56374;DHT22;58212;47.034;7.376;2022-12-24T12:33:53;9.20;99.90
56374;DHT22;58212;47.034;7.376;2022-12-24T12:36:25;9.10;99.90
56374;DHT22;58212;47.034;7.376;2022-12-24T12:39:01;9.30;99.90
56374;DHT22;58212;47.034;7.376;2022-12-24T12:41:39;9.50;99.90
56374;DHT22;58212;47.034;7.376;2022-12-24T12:44:43;9.50;99.90
56374;DHT22;58212;47.034;7.376;2022-12-24T12:47:32;9.50;99.90
56374;DHT22;58212;47.034;7.376;2022-12-24T12:50:08;9.20;99.90
56374;DHT22;58212;47.034;7.376;2022-12-24T12:52:56;9.40;99.90
56374;DHT22;58212;47.034;7.376;2022-12-24T12:55:36;9.60;99.90
56374;DHT22;58212;47.034;7.376;2022-12-24T12:58:12;9.80;99.90
56374;DHT22;58212;47.034;7.376;2022-12-24T13:00:42;9.70;99.90
56374;DHT22;58212;47.034;7.376;2022-12-24T13:03:34;9.30;99.90
56374;DHT22;58212;47.034;7.376;2022-12-24T13:09:26;9.10;99.90
56374;DHT22;58212;47.034;7.376;2022-12-24T13:12:13;9.30;99.90
56374;DHT22;58212;47.034;7.376;2022-12-24T13:15:03;9.50;99.90
56374;DHT22;58212;47.034;7.376;2022-12-24T13:17:56;9.70;99.90
56374;DHT22;58212;47.034;7.376;2022-12-24T13:20:29;9.80;99.90
56374;DHT22;58212;47.034;7.376;2022-12-24T13:22:58;9.80;99.90
56374;DHT22;58212;47.034;7.376;2022-12-24T13:25:32;9.90;99.90
56374;DHT22;58212;47.034;7.376;2022-12-24T13:28:17;9.90;99.90
56374;DHT22;58212;47.034;7.376;2022-12-24T13:31:21;9.90;99.90
56374;DHT22;58212;47.034;7.376;2022-12-24T13:33:50;9.90;99.90
56374;DHT22;58212;47.034;7.376;2022-12-24T13:36:19;9.80;99.90
56374;DHT22;58212;47.034;7.376;2022-12-24T13:38:48;10.00;99.90
56374;DHT22;58212;47.034;7.376;2022-12-24T13:44:28;9.90;99.90
56374;DHT22;58212;47.034;7.376;2022-12-24T13:47:15;9.90;99.90
56374;DHT22;58212;47.034;7.376;2022-12-24T13:49:49;9.90;99.90
56374;DHT22;58212;47.034;7.376;2022-12-24T13:52:22;9.90;99.90
56374;DHT22;58212;47.034;7.376;2022-12-24T13:55:06;10.00;99.90
56374;DHT22;58212;47.034;7.376;2022-12-24T13:57:40;9.90;99.90
56374;DHT22;58212;47.034;7.376;2022-12-24T14:00:30;9.80;99.90
56374;DHT22;58212;47.034;7.376;2022-12-24T14:03:02;9.80;99.90
56374;DHT22;58212;47.034;7.376;2022-12-24T14:05:33;9.70;99.90
56374;DHT22;58212;47.034;7.376;2022-12-24T14:08:03;9.60;99.90
56374;DHT22;58212;47.034;7.376;2022-12-24T14:10:35;9.80;99.90
56374;DHT22;58212;47.034;7.376;2022-12-24T14:13:04;10.00;99.90
56374;DHT22;58212;47.034;7.376;2022-12-24T14:16:00;9.70;99.90
56374;DHT22;58212;47.034;7.376;2022-12-24T14:18:34;9.80;99.90
56374;DHT22;58212;47.034;7.376;2022-12-24T14:21:04;9.60;99.90
56374;DHT22;58212;47.034;7.376;2022-12-24T14:23:50;9.50;99.90
56374;DHT22;58212;47.034;7.376;2022-12-24T14:26:22;9.40;99.90
56374;DHT22;58212;47.034;7.376;2022-12-24T14:28:53;9.70;99.90
56374;DHT22;58212;47.034;7.376;2022-12-24T14:31:25;9.70;99.90
56374;DHT22;58212;47.034;7.376;2022-12-24T14:34:04;9.90;99.90
56374;DHT22;58212;47.034;7.376;2022-12-24T14:36:34;9.90;99.90
56374;DHT22;58212;47.034;7.376;2022-12-24T14:39:05;10.00;99.90
56374;DHT22;58212;47.034;7.376;2022-12-24T14:41:41;10.00;99.90
56374;DHT22;58212;47.034;7.376;2022-12-24T14:44:18;9.90;99.90
56374;DHT22;58212;47.034;7.376;2022-12-24T14:46:53;9.90;99.90
56374;DHT22;58212;47.034;7.376;2022-12-24T14:49:35;10.00;99.90
56374;DHT22;58212;47.034;7.376;2022-12-24T14:52:12;10.00;99.90
56374;DHT22;58212;47.034;7.376;2022-12-24T14:54:41;10.00;99.90
56374;DHT22;58212;47.034;7.376;2022-12-24T14:57:19;10.00;99.90
56374;DHT22;58212;47.034;7.376;2022-12-24T14:59:49;9.90;99.90
56374;DHT22;58212;47.034;7.376;2022-12-24T15:02:45;9.90;99.90
56374;DHT22;58212;47.034;7.376;2022-12-24T15:05:15;10.00;99.90
56374;DHT22;58212;47.034;7.376;2022-12-24T15:07:46;9.80;99.90
56374;DHT22;58212;47.034;7.376;2022-12-24T15:10:34;9.80;99.90
56374;DHT22;58212;47.034;7.376;2022-12-24T15:13:07;9.90;99.90
56374;DHT22;58212;47.034;7.376;2022-12-24T15:15:35;9.90;99.90
56374;DHT22;58212;47.034;7.376;2022-12-24T15:18:04;9.90;99.90
56374;DHT22;58212;47.034;7.376;2022-12-24T15:20:31;9.70;99.90
56374;DHT22;58212;47.034;7.376;2022-12-24T15:22:58;9.90;99.90
56374;DHT22;58212;47.034;7.376;2022-12-24T15:25:27;9.90;99.90
56374;DHT22;58212;47.034;7.376;2022-12-24T15:27:58;9.80;99.90
56374;DHT22;58212;47.034;7.376;2022-12-24T15:30:36;9.80;99.90
56374;DHT22;58212;47.034;7.376;2022-12-24T15:33:09;9.90;99.90
56374;DHT22;58212;47.034;7.376;2022-12-24T15:35:49;10.00;99.90
56374;DHT22;58212;47.034;7.376;2022-12-24T15:38:25;9.80;99.90
56374;DHT22;58212;47.034;7.376;2022-12-24T15:40:53;9.80;99.90
56374;DHT22;58212;47.034;7.376;2022-12-24T15:43:21;9.80;99.90
56374;DHT22;58212;47.034;7.376;2022-12-24T15:45:49;9.80;99.90
56374;DHT22;58212;47.034;7.376;2022-12-24T15:48:20;9.80;99.90
56374;DHT22;58212;47.034;7.376;2022-12-24T15:50:50;9.90;99.90
56374;DHT22;58212;47.034;7.376;2022-12-24T15:53:22;9.70;99.90
56374;DHT22;58212;47.034;7.376;2022-12-24T15:56:02;9.60;99.90
56374;DHT22;58212;47.034;7.376;2022-12-24T15:58:31;9.70;99.90
56374;DHT22;58212;47.034;7.376;2022-12-24T16:01:01;9.70;99.90
56374;DHT22;58212;47.034;7.376;2022-12-24T16:03:32;9.70;99.90
56374;DHT22;58212;47.034;7.376;2022-12-24T16:06:01;9.80;99.90
56374;DHT22;58212;47.034;7.376;2022-12-24T16:08:30;9.80;99.90
56374;DHT22;58212;47.034;7.376;2022-12-24T16:11:12;9.70;99.90
56374;DHT22;58212;47.034;7.376;2022-12-24T16:13:50;9.70;99.90
56374;DHT22;58212;47.034;7.376;2022-12-24T16:16:28;9.70;99.90